sensor_id;sensor_type;location;lat;lon;timestamp;temperature;humidity
74153;DHT22;62505;46.070;14.492;2022-07-31T14:53:52;25.40;91.60
74153;DHT22;62505;46.070;14.492;2022-07-31T14:56:19;25.40;93.50
74153;DHT22;62505;46.070;14.492;2022-07-31T14:58:46;25.50;92.80
74153;DHT22;62505;46.070;14.492;2022-07-31T15:01:13;25.50;91.50
74153;DHT22;62505;46.070;14.492;2022-07-31T15:03:40;25.50;82.90
74153;DHT22;62505;46.070;14.492;2022-07-31T15:06:07;25.60;84.60
74153;DHT22;62505;46.070;14.492;2022-07-31T15:08:37;25.70;67.50
74153;DHT22;62505;46.070;14.492;2022-07-31T15:11:06;26.10;59.90
74153;DHT22;62505;46.070;14.492;2022-07-31T15:13:33;26.00;62.10
74153;DHT22;62505;46.070;14.492;2022-07-31T15:16:00;26.00;65.00
74153;DHT22;62505;46.070;14.492;2022-07-31T15:18:27;25.90;66.90
74153;DHT22;62505;46.070;14.492;2022-07-31T15:20:54;25.80;67.90
74153;DHT22;62505;46.070;14.492;2022-07-31T15:23:21;25.80;68.30
74153;DHT22;62505;46.070;14.492;2022-07-31T15:25:48;25.80;66.50
74153;DHT22;62505;46.070;14.492;2022-07-31T15:28:16;25.90;63.80
74153;DHT22;62505;46.070;14.492;2022-07-31T15:30:43;25.90;61.70
74153;DHT22;62505;46.070;14.492;2022-07-31T15:33:10;25.90;60.70
74153;DHT22;62505;46.070;14.492;2022-07-31T15:35:37;26.00;63.40
74153;DHT22;62505;46.070;14.492;2022-07-31T15:38:04;26.00;59.10
74153;DHT22;62505;46.070;14.492;2022-07-31T15:40:31;26.00;65.00
74153;DHT22;62505;46.070;14.492;2022-07-31T15:42:58;25.90;65.90
74153;DHT22;62505;46.070;14.492;2022-07-31T15:45:26;25.90;66.30
74153;DHT22;62505;46.070;14.492;2022-07-31T15:47:53;26.00;68.40
74153;DHT22;62505;46.070;14.492;2022-07-31T15:50:20;26.00;64.80
74153;DHT22;62505;46.070;14.492;2022-07-31T15:52:48;26.10;66.90
74153;DHT22;62505;46.070;14.492;2022-07-31T15:55:15;26.10;69.10
74153;DHT22;62505;46.070;14.492;2022-07-31T15:57:43;26.10;70.20
74153;DHT22;62505;46.070;14.492;2022-07-31T16:00:10;26.00;73.70
74153;DHT22;62505;46.070;14.492;2022-07-31T16:02:40;26.00;73.60
74153;DHT22;62505;46.070;14.492;2022-07-31T16:05:08;26.00;68.70
74153;DHT22;62505;46.070;14.492;2022-07-31T16:07:35;26.00;69.70
74153;DHT22;62505;46.070;14.492;2022-07-31T16:10:02;26.00;70.40
74153;DHT22;62505;46.070;14.492;2022-07-31T16:12:29;26.00;70.50
74153;DHT22;62505;46.070;14.492;2022-07-31T16:14:56;26.00;70.10
74153;DHT22;62505;46.070;14.492;2022-07-31T16:17:23;26.00;66.40
74153;DHT22;62505;46.070;14.492;2022-07-31T16:20:04;26.00;66.40
74153;DHT22;62505;46.070;14.492;2022-07-31T16:22:33;26.00;65.10
74153;DHT22;62505;46.070;14.492;2022-07-31T16:25:00;26.00;67.70
74153;DHT22;62505;46.070;14.492;2022-07-31T16:27:27;26.00;65.30
74153;DHT22;62505;46.070;14.492;2022-07-31T16:29:54;26.00;63.80
74153;DHT22;62505;46.070;14.492;2022-07-31T16:32:23;26.00;62.20
74153;DHT22;62505;46.070;14.492;2022-07-31T16:34:50;26.10;60.60
74153;DHT22;62505;46.070;14.492;2022-07-31T16:37:18;26.10;60.70
74153;DHT22;62505;46.070;14.492;2022-07-31T16:39:45;26.00;60.00
74153;DHT22;62505;46.070;14.492;2022-07-31T16:42:12;26.00;60.30
74153;DHT22;62505;46.070;14.492;2022-07-31T16:44:39;26.00;59.70
74153;DHT22;62505;46.070;14.492;2022-07-31T16:47:08;26.00;59.10
74153;DHT22;62505;46.070;14.492;2022-07-31T16:49:35;25.90;59.60
74153;DHT22;62505;46.070;14.492;2022-07-31T16:52:03;25.90;59.20
74153;DHT22;62505;46.070;14.492;2022-07-31T16:54:32;25.90;58.80
74153;DHT22;62505;46.070;14.492;2022-07-31T16:56:59;25.90;59.10
74153;DHT22;62505;46.070;14.492;2022-07-31T16:59:26;25.90;59.30
74153;DHT22;62505;46.070;14.492;2022-07-31T17:01:52;25.80;59.10
74153;DHT22;62505;46.070;14.492;2022-07-31T17:04:19;25.80;59.00
74153;DHT22;62505;46.070;14.492;2022-07-31T17:06:46;25.80;59.40
74153;DHT22;62505;46.070;14.492;2022-07-31T17:09:13;25.80;59.50
74153;DHT22;62505;46.070;14.492;2022-07-31T17:11:42;25.80;59.50
74153;DHT22;62505;46.070;14.492;2022-07-31T17:14:08;25.70;59.10
74153;DHT22;62505;46.070;14.492;2022-07-31T17:16:35;25.70;59.20
74153;DHT22;62505;46.070;14.492;2022-07-31T17:19:02;25.70;58.90
74153;DHT22;62505;46.070;14.492;2022-07-31T17:21:29;25.70;58.60
74153;DHT22;62505;46.070;14.492;2022-07-31T17:23:56;25.70;58.60
74153;DHT22;62505;46.070;14.492;2022-07-31T17:26:23;25.70;58.40
74153;DHT22;62505;46.070;14.492;2022-07-31T17:28:51;25.70;58.30
74153;DHT22;62505;46.070;14.492;2022-07-31T17:31:18;25.60;58.80
74153;DHT22;62505;46.070;14.492;2022-07-31T17:33:45;25.60;58.70
74153;DHT22;62505;46.070;14.492;2022-07-31T17:36:12;25.60;59.10
74153;DHT22;62505;46.070;14.492;2022-07-31T17:38:39;25.60;59.80
74153;DHT22;62505;46.070;14.492;2022-07-31T17:41:06;25.60;59.70
74153;DHT22;62505;46.070;14.492;2022-07-31T17:43:33;25.60;60.60
74153;DHT22;62505;46.070;14.492;2022-07-31T17:46:02;25.60;60.10
74153;DHT22;62505;46.070;14.492;2022-07-31T17:48:29;25.60;61.00
74153;DHT22;62505;46.070;14.492;2022-07-31T17:50:56;25.60;60.70
74153;DHT22;62505;46.070;14.492;2022-07-31T17:53:22;25.60;60.60
74153;DHT22;62505;46.070;14.492;2022-07-31T17:55:49;25.60;61.70
74153;DHT22;62505;46.070;14.492;2022-07-31T17:58:16;25.60;60.70
74153;DHT22;62505;46.070;14.492;2022-07-31T18:00:44;25.60;61.60
74153;DHT22;62505;46.070;14.492;2022-07-31T18:03:13;25.60;61.60
74153;DHT22;62505;46.070;14.492;2022-07-31T18:05:40;25.50;61.70
74153;DHT22;62505;46.070;14.492;2022-07-31T18:08:06;25.60;61.60
74153;DHT22;62505;46.070;14.492;2022-07-31T18:10:33;25.60;61.70
74153;DHT22;62505;46.070;14.492;2022-07-31T18:13:00;25.60;62.70
74153;DHT22;62505;46.070;14.492;2022-07-31T18:15:27;25.60;62.30
74153;DHT22;62505;46.070;14.492;2022-07-31T18:17:54;25.50;62.70
74153;DHT22;62505;46.070;14.492;2022-07-31T18:20:22;25.50;63.60
74153;DHT22;62505;46.070;14.492;2022-07-31T18:22:49;25.60;64.80
74153;DHT22;62505;46.070;14.492;2022-07-31T18:25:16;25.50;65.90
74153;DHT22;62505;46.070;14.492;2022-07-31T18:27:43;25.50;67.00
74153;DHT22;62505;46.070;14.492;2022-07-31T18:30:11;25.50;67.50
74153;DHT22;62505;46.070;14.492;2022-07-31T18:32:38;25.50;67.80
74153;DHT22;62505;46.070;14.492;2022-07-31T18:35:05;25.50;68.10
74153;DHT22;62505;46.070;14.492;2022-07-31T18:37:33;25.50;68.20
74153;DHT22;62505;46.070;14.492;2022-07-31T18:40:00;25.50;68.50
74153;DHT22;62505;46.070;14.492;2022-07-31T18:42:27;25.50;68.70
74153;DHT22;62505;46.070;14.492;2022-07-31T18:44:55;25.50;68.80
74153;DHT22;62505;46.070;14.492;2022-07-31T18:47:22;25.50;69.00
74153;DHT22;62505;46.070;14.492;2022-07-31T18:49:49;25.50;69.10
74153;DHT22;62505;46.070;14.492;2022-07-31T18:52:16;25.50;69.10
74153;DHT22;62505;46.070;14.492;2022-07-31T18:54:44;25.50;69.30
74153;DHT22;62505;46.070;14.492;2022-07-31T18:57:11;25.50;69.50
74153;DHT22;62505;46.070;14.492;2022-07-31T18:59:38;25.50;69.70
74153;DHT22;62505;46.070;14.492;2022-07-31T19:02:05;25.50;69.80
74153;DHT22;62505;46.070;14.492;2022-07-31T19:04:34;25.50;70.00
74153;DHT22;62505;46.070;14.492;2022-07-31T19:07:01;25.50;70.10
74153;DHT22;62505;46.070;14.492;2022-07-31T19:09:28;25.50;70.10
74153;DHT22;62505;46.070;14.492;2022-07-31T19:11:56;25.50;70.10
74153;DHT22;62505;46.070;14.492;2022-07-31T19:14:23;25.50;70.10
74153;DHT22;62505;46.070;14.492;2022-07-31T19:16:50;25.50;70.20
74153;DHT22;62505;46.070;14.492;2022-07-31T19:19:19;25.50;70.90
74153;DHT22;62505;46.070;14.492;2022-07-31T19:21:45;25.50;70.00
74153;DHT22;62505;46.070;14.492;2022-07-31T19:24:12;25.50;70.00
74153;DHT22;62505;46.070;14.492;2022-07-31T19:26:39;25.50;70.00
74153;DHT22;62505;46.070;14.492;2022-07-31T19:29:08;25.50;70.00
74153;DHT22;62505;46.070;14.492;2022-07-31T19:31:35;25.50;70.00
74153;DHT22;62505;46.070;14.492;2022-07-31T19:34:02;25.50;70.00
74153;DHT22;62505;46.070;14.492;2022-07-31T19:36:29;25.50;70.00
74153;DHT22;62505;46.070;14.492;2022-07-31T19:38:55;25.50;69.70
74153;DHT22;62505;46.070;14.492;2022-07-31T19:41:22;25.50;69.70
74153;DHT22;62505;46.070;14.492;2022-07-31T19:43:49;25.50;69.80
74153;DHT22;62505;46.070;14.492;2022-07-31T19:46:18;25.50;69.60
74153;DHT22;62505;46.070;14.492;2022-07-31T19:48:45;25.50;69.60
74153;DHT22;62505;46.070;14.492;2022-07-31T19:51:13;25.40;69.50
74153;DHT22;62505;46.070;14.492;2022-07-31T19:53:40;25.40;69.60
74153;DHT22;62505;46.070;14.492;2022-07-31T19:56:08;25.50;69.40
74153;DHT22;62505;46.070;14.492;2022-07-31T19:58:36;25.50;69.50
74153;DHT22;62505;46.070;14.492;2022-07-31T20:01:06;25.50;69.30
74153;DHT22;62505;46.070;14.492;2022-07-31T20:03:34;25.40;69.30
74153;DHT22;62505;46.070;14.492;2022-07-31T20:06:02;25.40;69.30
74153;DHT22;62505;46.070;14.492;2022-07-31T20:08:29;25.40;69.40
74153;DHT22;62505;46.070;14.492;2022-07-31T20:10:56;25.50;69.20
74153;DHT22;62505;46.070;14.492;2022-07-31T20:13:25;25.50;69.00
74153;DHT22;62505;46.070;14.492;2022-07-31T20:15:52;25.40;69.30
74153;DHT22;62505;46.070;14.492;2022-07-31T20:18:19;25.50;68.90
74153;DHT22;62505;46.070;14.492;2022-07-31T20:20:52;25.40;68.80
74153;DHT22;62505;46.070;14.492;2022-07-31T20:23:19;25.40;68.70
74153;DHT22;62505;46.070;14.492;2022-07-31T20:25:46;25.40;68.90
74153;DHT22;62505;46.070;14.492;2022-07-31T20:28:13;25.40;69.60
74153;DHT22;62505;46.070;14.492;2022-07-31T20:30:40;25.40;68.70
74153;DHT22;62505;46.070;14.492;2022-07-31T20:33:07;25.40;68.50
74153;DHT22;62505;46.070;14.492;2022-07-31T20:35:34;25.40;68.40
74153;DHT22;62505;46.070;14.492;2022-07-31T20:38:02;25.40;68.50
74153;DHT22;62505;46.070;14.492;2022-07-31T20:40:29;25.40;68.40
74153;DHT22;62505;46.070;14.492;2022-07-31T20:42:56;25.40;68.30
74153;DHT22;62505;46.070;14.492;2022-07-31T20:45:23;25.40;68.20
74153;DHT22;62505;46.070;14.492;2022-07-31T20:47:51;25.40;68.40
74153;DHT22;62505;46.070;14.492;2022-07-31T20:50:20;25.40;68.60
74153;DHT22;62505;46.070;14.492;2022-07-31T20:52:47;25.40;68.20
74153;DHT22;62505;46.070;14.492;2022-07-31T20:55:16;25.40;68.30
74153;DHT22;62505;46.070;14.492;2022-07-31T20:57:43;25.40;68.30
74153;DHT22;62505;46.070;14.492;2022-07-31T21:00:11;25.40;68.30
74153;DHT22;62505;46.070;14.492;2022-07-31T21:02:39;25.40;68.40
74153;DHT22;62505;46.070;14.492;2022-07-31T21:05:07;25.40;68.10
74153;DHT22;62505;46.070;14.492;2022-07-31T21:07:34;25.40;68.20
74153;DHT22;62505;46.070;14.492;2022-07-31T21:10:01;25.50;74.70
74153;DHT22;62505;46.070;14.492;2022-07-31T21:12:29;25.60;75.20
74153;DHT22;62505;46.070;14.492;2022-07-31T21:14:56;25.60;75.00
74153;DHT22;62505;46.070;14.492;2022-07-31T21:17:23;25.60;74.80
74153;DHT22;62505;46.070;14.492;2022-07-31T21:19:51;25.60;74.40
74153;DHT22;62505;46.070;14.492;2022-07-31T21:22:18;25.60;73.70
74153;DHT22;62505;46.070;14.492;2022-07-31T21:24:46;25.60;73.70
74153;DHT22;62505;46.070;14.492;2022-07-31T21:27:14;25.60;73.30
74153;DHT22;62505;46.070;14.492;2022-07-31T21:29:43;25.60;72.90
74153;DHT22;62505;46.070;14.492;2022-07-31T21:32:11;25.60;72.90
74153;DHT22;62505;46.070;14.492;2022-07-31T21:34:39;25.60;72.70
74153;DHT22;62505;46.070;14.492;2022-07-31T21:37:06;25.70;72.70
74153;DHT22;62505;46.070;14.492;2022-07-31T21:39:34;25.70;72.60
74153;DHT22;62505;46.070;14.492;2022-07-31T21:42:02;25.70;72.50
74153;DHT22;62505;46.070;14.492;2022-07-31T21:44:29;25.60;72.40
74153;DHT22;62505;46.070;14.492;2022-07-31T21:46:59;25.60;72.30
74153;DHT22;62505;46.070;14.492;2022-07-31T21:49:30;25.70;72.30
74153;DHT22;62505;46.070;14.492;2022-07-31T21:51:59;25.60;72.10
74153;DHT22;62505;46.070;14.492;2022-07-31T21:54:26;25.70;72.20
74153;DHT22;62505;46.070;14.492;2022-07-31T21:56:53;25.70;72.00
74153;DHT22;62505;46.070;14.492;2022-07-31T21:59:20;25.60;71.80
74153;DHT22;62505;46.070;14.492;2022-07-31T22:01:47;25.70;71.90
74153;DHT22;62505;46.070;14.492;2022-07-31T22:04:16;25.60;71.70
74153;DHT22;62505;46.070;14.492;2022-07-31T22:06:43;25.60;71.60
74153;DHT22;62505;46.070;14.492;2022-07-31T22:09:27;25.60;71.60
74153;DHT22;62505;46.070;14.492;2022-07-31T22:11:54;25.70;71.60
74153;DHT22;62505;46.070;14.492;2022-07-31T22:14:21;25.60;71.50
74153;DHT22;62505;46.070;14.492;2022-07-31T22:16:49;25.60;71.50
74153;DHT22;62505;46.070;14.492;2022-07-31T22:19:18;25.60;71.40
74153;DHT22;62505;46.070;14.492;2022-07-31T22:21:45;25.70;71.50
74153;DHT22;62505;46.070;14.492;2022-07-31T22:24:12;25.60;71.40
74153;DHT22;62505;46.070;14.492;2022-07-31T22:26:40;25.60;71.40
74153;DHT22;62505;46.070;14.492;2022-07-31T22:29:27;25.60;71.40
74153;DHT22;62505;46.070;14.492;2022-07-31T22:31:55;25.60;71.40
74153;DHT22;62505;46.070;14.492;2022-07-31T22:34:24;25.60;71.40
74153;DHT22;62505;46.070;14.492;2022-07-31T22:36:51;25.60;71.40
74153;DHT22;62505;46.070;14.492;2022-07-31T22:39:18;25.60;71.40
74153;DHT22;62505;46.070;14.492;2022-07-31T22:41:46;25.60;71.20
74153;DHT22;62505;46.070;14.492;2022-07-31T22:44:13;25.60;71.20
74153;DHT22;62505;46.070;14.492;2022-07-31T22:46:40;25.60;71.10
74153;DHT22;62505;46.070;14.492;2022-07-31T22:49:08;25.60;71.00
74153;DHT22;62505;46.070;14.492;2022-07-31T22:51:36;25.60;71.00
74153;DHT22;62505;46.070;14.492;2022-07-31T22:54:03;25.60;70.90
74153;DHT22;62505;46.070;14.492;2022-07-31T22:56:30;25.60;70.90
74153;DHT22;62505;46.070;14.492;2022-07-31T22:58:57;25.60;70.90
74153;DHT22;62505;46.070;14.492;2022-07-31T23:01:24;25.60;70.90
74153;DHT22;62505;46.070;14.492;2022-07-31T23:03:51;25.60;70.70
74153;DHT22;62505;46.070;14.492;2022-07-31T23:06:18;25.60;70.70
74153;DHT22;62505;46.070;14.492;2022-07-31T23:08:49;25.70;70.90
74153;DHT22;62505;46.070;14.492;2022-07-31T23:11:16;25.60;70.90
74153;DHT22;62505;46.070;14.492;2022-07-31T23:13:43;25.60;70.70
74153;DHT22;62505;46.070;14.492;2022-07-31T23:16:09;25.60;70.70
74153;DHT22;62505;46.070;14.492;2022-07-31T23:18:36;25.60;70.60
74153;DHT22;62505;46.070;14.492;2022-07-31T23:21:03;25.60;70.60
74153;DHT22;62505;46.070;14.492;2022-07-31T23:23:30;25.60;70.50
74153;DHT22;62505;46.070;14.492;2022-07-31T23:25:59;25.60;70.60
74153;DHT22;62505;46.070;14.492;2022-07-31T23:28:25;25.60;70.70
74153;DHT22;62505;46.070;14.492;2022-07-31T23:30:52;25.60;70.50
74153;DHT22;62505;46.070;14.492;2022-07-31T23:33:19;25.60;70.50
74153;DHT22;62505;46.070;14.492;2022-07-31T23:35:46;25.60;70.50
74153;DHT22;62505;46.070;14.492;2022-07-31T23:38:13;25.60;70.60
74153;DHT22;62505;46.070;14.492;2022-07-31T23:40:40;25.60;71.20
74153;DHT22;62505;46.070;14.492;2022-07-31T23:43:08;25.60;70.50
74153;DHT22;62505;46.070;14.492;2022-07-31T23:45:34;25.60;70.40
74153;DHT22;62505;46.070;14.492;2022-07-31T23:48:01;25.60;70.40
74153;DHT22;62505;46.070;14.492;2022-07-31T23:50:28;25.60;70.30
74153;DHT22;62505;46.070;14.492;2022-07-31T23:52:55;25.60;70.20
74153;DHT22;62505;46.070;14.492;2022-07-31T23:55:22;25.60;70.20
74153;DHT22;62505;46.070;14.492;2022-07-31T23:57:49;25.60;70.30
